createdAt,value
2018-09-11T00:01:16.950Z,17.90
2018-09-11T00:04:26.214Z,17.80
2018-09-11T00:07:36.269Z,17.70
2018-09-11T00:10:45.410Z,17.70
2018-09-11T00:13:54.805Z,17.70
2018-09-11T00:17:04.141Z,17.70
2018-09-11T00:20:13.486Z,17.70
2018-09-11T00:23:22.750Z,17.70
2018-09-11T00:26:31.866Z,17.70
2018-09-11T00:29:41.090Z,17.70
2018-09-11T00:32:50.402Z,17.70
2018-09-11T00:35:59.866Z,17.70
2018-09-11T00:39:09.606Z,17.70
2018-09-11T00:42:19.060Z,17.70
2018-09-11T00:45:28.197Z,17.60
2018-09-11T00:48:37.569Z,17.60
2018-09-11T00:51:46.848Z,17.60
2018-09-11T00:54:55.984Z,17.50
2018-09-11T00:58:05.426Z,17.50
2018-09-11T01:01:14.663Z,17.50
2018-09-11T01:04:23.980Z,17.40
2018-09-11T01:07:35.624Z,17.40
2018-09-11T01:10:44.811Z,17.50
2018-09-11T01:13:54.190Z,17.50
2018-09-11T01:17:03.458Z,17.50
2018-09-11T01:20:12.606Z,17.50
2018-09-11T01:23:21.829Z,17.40
2018-09-11T01:26:31.183Z,17.40
2018-09-11T01:29:40.415Z,17.40
2018-09-11T01:32:50.382Z,17.40
2018-09-11T01:35:59.592Z,17.40
2018-09-11T01:39:10.681Z,17.40
2018-09-11T01:42:20.148Z,17.40
2018-09-11T01:45:29.271Z,17.30
2018-09-11T01:48:38.372Z,17.20
2018-09-11T01:51:47.776Z,17.20
2018-09-11T01:54:56.944Z,17.20
2018-09-11T01:58:06.487Z,17.20
2018-09-11T02:01:15.610Z,17.20
2018-09-11T02:04:24.870Z,17.20
2018-09-11T02:07:34.086Z,17.10
2018-09-11T02:10:43.491Z,17.20
2018-09-11T02:13:52.755Z,17.20
2018-09-11T02:17:01.991Z,17.10
2018-09-11T02:20:11.137Z,17.10
2018-09-11T02:23:20.458Z,17.10
2018-09-11T02:26:29.565Z,17.10
2018-09-11T02:29:38.713Z,17.10
2018-09-11T02:32:48.041Z,17.00
2018-09-11T02:35:57.333Z,17.00
2018-09-11T02:39:08.766Z,17.00
2018-09-11T02:42:17.970Z,16.90
2018-09-11T02:45:27.081Z,17.00
2018-09-11T02:48:36.585Z,17.00
2018-09-11T02:51:45.806Z,17.00
2018-09-11T02:54:55.073Z,17.00
2018-09-11T02:58:04.453Z,17.00
2018-09-11T03:01:13.622Z,17.00
2018-09-11T03:04:23.054Z,17.00
2018-09-11T03:07:32.186Z,17.00
2018-09-11T03:10:41.758Z,17.00
2018-09-11T03:13:50.941Z,17.00
2018-09-11T03:17:00.258Z,17.10
2018-09-11T03:20:09.563Z,17.20
2018-09-11T03:23:18.861Z,17.10
2018-09-11T03:26:28.222Z,17.10
2018-09-11T03:29:37.514Z,17.10
2018-09-11T03:32:46.777Z,17.10
2018-09-11T03:35:56.003Z,17.10
2018-09-11T03:39:07.522Z,17.10
2018-09-11T03:42:16.876Z,17.10
2018-09-11T03:45:26.116Z,17.10
2018-09-11T03:48:35.379Z,17.10
2018-09-11T03:51:44.637Z,17.10
2018-09-11T03:54:53.966Z,17.10
2018-09-11T03:58:03.203Z,17.10
2018-09-11T04:01:12.330Z,17.10
2018-09-11T04:04:21.497Z,17.10
2018-09-11T04:07:30.902Z,17.10
2018-09-11T04:10:40.189Z,17.10
2018-09-11T04:13:49.369Z,17.00
2018-09-11T04:16:58.759Z,17.00
2018-09-11T04:20:08.133Z,17.10
2018-09-11T04:23:17.437Z,17.10
2018-09-11T04:26:26.557Z,17.10
2018-09-11T04:29:35.902Z,17.10
2018-09-11T04:32:45.058Z,17.10
2018-09-11T04:35:54.434Z,17.10
2018-09-11T04:39:04.802Z,17.10
2018-09-11T04:42:14.081Z,17.10
2018-09-11T04:45:23.188Z,17.10
2018-09-11T04:48:32.478Z,17.10
2018-09-11T04:51:41.666Z,17.00
2018-09-11T04:54:50.980Z,17.10
2018-09-11T04:58:00.005Z,17.10
2018-09-11T05:01:09.362Z,17.10
2018-09-11T05:04:18.610Z,17.10
2018-09-11T05:07:27.861Z,17.20
2018-09-11T05:10:37.110Z,17.20
2018-09-11T05:13:46.562Z,17.20
2018-09-11T05:16:56.044Z,17.20
2018-09-11T05:20:05.148Z,17.20
2018-09-11T05:23:14.508Z,17.20
2018-09-11T05:26:23.892Z,17.20
2018-09-11T05:29:33.522Z,17.20
2018-09-11T05:32:42.804Z,17.30
2018-09-11T05:35:52.161Z,17.30
2018-09-11T05:39:01.487Z,17.40
2018-09-11T05:42:10.684Z,17.40
2018-09-11T05:45:20.117Z,17.40
2018-09-11T05:48:29.342Z,17.50
2018-09-11T05:51:38.899Z,17.50
2018-09-11T05:54:48.029Z,17.60
2018-09-11T05:57:57.359Z,17.50
2018-09-11T06:01:06.682Z,17.50
2018-09-11T06:04:16.125Z,17.50
2018-09-11T06:07:25.564Z,17.50
2018-09-11T06:10:34.904Z,17.60
2018-09-11T06:13:44.178Z,17.60
2018-09-11T06:16:53.791Z,17.70
2018-09-11T06:20:03.055Z,17.90
2018-09-11T06:23:12.180Z,17.90
2018-09-11T06:26:21.461Z,18.00
2018-09-11T06:29:30.609Z,18.10
2018-09-11T06:32:40.035Z,18.10
2018-09-11T06:35:49.499Z,18.30
2018-09-11T06:38:58.613Z,18.70
2018-09-11T06:42:07.780Z,18.70
2018-09-11T06:45:17.251Z,18.80
2018-09-11T06:48:26.523Z,18.80
2018-09-11T06:51:35.770Z,18.80
2018-09-11T06:54:45.204Z,18.70
2018-09-11T06:57:54.422Z,18.80
2018-09-11T07:01:03.927Z,18.90
2018-09-11T07:04:13.366Z,19.00
2018-09-11T07:07:22.510Z,19.20
2018-09-11T07:10:31.793Z,19.30
2018-09-11T07:13:41.031Z,19.60
2018-09-11T07:16:50.378Z,19.90
2018-09-11T07:19:59.713Z,20.30
2018-09-11T07:23:09.022Z,20.60
2018-09-11T07:26:18.414Z,21.00
2018-09-11T07:29:27.621Z,21.10
2018-09-11T07:32:36.777Z,21.30
2018-09-11T07:35:46.089Z,21.40
2018-09-11T07:38:55.395Z,21.50
2018-09-11T07:42:04.642Z,21.60
2018-09-11T07:45:13.913Z,22.20
2018-09-11T07:48:23.733Z,23.00
2018-09-11T07:51:33.057Z,23.40
2018-09-11T07:54:42.315Z,24.00
2018-09-11T07:57:51.776Z,23.50
2018-09-11T08:01:00.954Z,23.50
2018-09-11T08:04:10.152Z,23.80
2018-09-11T08:07:19.562Z,23.80
2018-09-11T08:10:28.816Z,23.60
2018-09-11T08:13:38.239Z,23.70
2018-09-11T08:16:47.425Z,23.60
2018-09-11T08:19:56.864Z,23.60
2018-09-11T08:23:06.098Z,24.00
2018-09-11T08:26:15.554Z,24.00
2018-09-11T08:29:24.890Z,24.20
2018-09-11T08:32:34.060Z,24.30
2018-09-11T08:35:43.342Z,24.20
2018-09-11T08:38:52.558Z,24.50
2018-09-11T08:42:01.914Z,24.80
2018-09-11T08:45:11.199Z,24.80
2018-09-11T08:48:20.401Z,25.00
2018-09-11T08:51:29.465Z,24.90
2018-09-11T08:54:38.746Z,24.80
2018-09-11T08:57:48.061Z,24.60
2018-09-11T09:00:57.314Z,25.00
2018-09-11T09:04:06.574Z,24.90
2018-09-11T09:07:15.881Z,24.70
2018-09-11T09:10:25.273Z,24.40
2018-09-11T09:13:34.554Z,24.40
2018-09-11T09:16:43.734Z,24.40
2018-09-11T09:19:53.077Z,24.40
2018-09-11T09:23:02.273Z,24.50
2018-09-11T09:26:11.589Z,24.60
2018-09-11T09:29:20.992Z,24.70
2018-09-11T09:32:30.261Z,24.50
2018-09-11T09:35:39.545Z,24.60
2018-09-11T09:38:48.990Z,24.50
2018-09-11T09:41:58.373Z,24.30
2018-09-11T09:45:08.646Z,24.40
2018-09-11T09:48:17.871Z,24.60
2018-09-11T09:51:27.084Z,24.70
2018-09-11T09:54:36.790Z,24.70
2018-09-11T09:57:45.970Z,24.40
2018-09-11T10:01:01.418Z,24.30
2018-09-11T10:04:10.689Z,24.30
2018-09-11T10:07:20.851Z,24.10
2018-09-11T10:10:30.033Z,23.90
2018-09-11T10:13:39.374Z,23.90
2018-09-11T10:16:48.719Z,24.10
2018-09-11T10:19:58.185Z,24.30
2018-09-11T10:23:07.583Z,24.30
2018-09-11T10:26:16.909Z,24.60
2018-09-11T10:29:26.118Z,24.70
2018-09-11T10:32:35.309Z,24.90
2018-09-11T10:35:44.557Z,25.00
2018-09-11T10:38:53.694Z,25.20
2018-09-11T10:42:03.085Z,25.40
2018-09-11T10:45:12.420Z,25.50
2018-09-11T10:48:21.910Z,25.60
2018-09-11T10:51:31.350Z,25.40
2018-09-11T10:54:40.577Z,25.40
2018-09-11T10:57:49.659Z,25.40
2018-09-11T11:00:58.939Z,25.40
2018-09-11T11:04:08.153Z,25.50
2018-09-11T11:07:17.325Z,25.60
2018-09-11T11:10:26.517Z,25.70
2018-09-11T11:13:35.805Z,25.80
2018-09-11T11:16:45.065Z,25.90
2018-09-11T11:19:54.321Z,25.70
2018-09-11T11:23:04.205Z,25.70
2018-09-11T11:26:13.381Z,25.80
2018-09-11T11:29:22.765Z,25.80
2018-09-11T11:32:32.158Z,25.70
2018-09-11T11:35:41.427Z,25.80
2018-09-11T11:38:50.670Z,26.00
2018-09-11T11:41:59.906Z,25.90
2018-09-11T11:45:09.338Z,26.10
2018-09-11T11:48:18.944Z,26.20
2018-09-11T11:51:28.238Z,26.20
2018-09-11T11:54:37.722Z,26.10
2018-09-11T11:57:47.058Z,26.40
2018-09-11T12:00:56.238Z,26.40
2018-09-11T12:04:05.698Z,26.30
2018-09-11T12:07:15.017Z,26.30
2018-09-11T12:10:24.361Z,26.30
2018-09-11T12:13:33.475Z,26.40
2018-09-11T12:16:42.589Z,26.40
2018-09-11T12:19:51.724Z,26.40
2018-09-11T12:23:00.921Z,26.20
2018-09-11T12:26:10.159Z,26.00
2018-09-11T12:29:19.382Z,26.00
2018-09-11T12:32:28.670Z,26.10
2018-09-11T12:35:38.259Z,26.20
2018-09-11T12:38:47.495Z,26.20
2018-09-11T12:41:56.878Z,26.10
2018-09-11T12:45:06.269Z,26.10
2018-09-11T12:48:15.972Z,26.20
2018-09-11T12:51:25.349Z,26.20
2018-09-11T12:54:34.517Z,26.20
2018-09-11T12:57:43.866Z,26.40
2018-09-11T13:00:53.033Z,26.40
2018-09-11T13:04:02.357Z,26.40
2018-09-11T13:07:11.769Z,26.40
2018-09-11T13:10:21.133Z,26.20
2018-09-11T13:13:30.282Z,26.20
2018-09-11T13:16:39.636Z,26.20
2018-09-11T13:19:48.851Z,26.10
2018-09-11T13:22:58.020Z,26.20
2018-09-11T13:26:07.320Z,26.20
2018-09-11T13:29:16.670Z,26.20
2018-09-11T13:32:25.953Z,26.20
2018-09-11T13:35:35.226Z,26.10
2018-09-11T13:38:44.519Z,26.00
2018-09-11T13:41:53.705Z,26.00
2018-09-11T13:45:03.141Z,26.00
2018-09-11T13:48:12.478Z,26.00
2018-09-11T13:51:21.707Z,26.00
2018-09-11T13:54:30.892Z,26.00
2018-09-11T13:57:40.076Z,26.10
2018-09-11T14:00:49.309Z,26.30
2018-09-11T14:03:58.549Z,26.40
2018-09-11T14:07:07.879Z,26.40
2018-09-11T14:10:17.421Z,26.30
2018-09-11T14:13:27.253Z,26.30
2018-09-11T14:16:36.445Z,26.50
2018-09-11T14:19:45.778Z,26.40
2018-09-11T14:22:55.120Z,26.30
2018-09-11T14:26:04.466Z,26.30
2018-09-11T14:29:13.788Z,26.30
2018-09-11T14:32:23.302Z,26.30
2018-09-11T14:35:32.549Z,26.30
2018-09-11T14:38:41.810Z,26.30
2018-09-11T14:41:51.034Z,26.10
2018-09-11T14:45:00.392Z,26.00
2018-09-11T14:48:09.654Z,26.00
2018-09-11T14:51:19.770Z,26.00
2018-09-11T14:54:29.093Z,26.10
2018-09-11T14:57:38.282Z,26.10
2018-09-11T15:00:47.562Z,26.10
2018-09-11T15:03:57.195Z,26.10
2018-09-11T15:07:06.430Z,26.10
2018-09-11T15:10:15.931Z,26.00
2018-09-11T15:13:25.214Z,26.00
2018-09-11T15:16:34.997Z,26.00
2018-09-11T15:19:44.188Z,26.10
2018-09-11T15:22:54.057Z,26.10
2018-09-11T15:26:03.477Z,26.00
2018-09-11T15:29:12.800Z,25.90
2018-09-11T15:32:21.949Z,25.90
2018-09-11T15:35:31.223Z,25.80
2018-09-11T15:38:40.737Z,25.80
2018-09-11T15:41:50.216Z,25.70
2018-09-11T15:44:59.328Z,25.70
2018-09-11T15:48:08.410Z,25.70
2018-09-11T15:51:17.553Z,25.80
2018-09-11T15:54:26.886Z,26.00
2018-09-11T15:57:36.130Z,26.10
2018-09-11T16:00:45.569Z,26.10
2018-09-11T16:03:54.925Z,26.00
2018-09-11T16:07:04.649Z,26.00
2018-09-11T16:10:13.829Z,26.00
2018-09-11T16:13:23.097Z,25.90
2018-09-11T16:16:32.217Z,25.80
2018-09-11T16:19:41.355Z,25.70
2018-09-11T16:22:50.546Z,25.60
2018-09-11T16:25:59.792Z,25.60
2018-09-11T16:29:09.077Z,25.70
2018-09-11T16:32:18.459Z,25.70
2018-09-11T16:35:27.885Z,25.70
2018-09-11T16:38:37.138Z,25.80
2018-09-11T16:41:46.372Z,25.80
2018-09-11T16:44:55.593Z,25.70
2018-09-11T16:48:04.838Z,25.60
2018-09-11T16:51:14.010Z,25.50
2018-09-11T16:54:23.433Z,25.40
2018-09-11T16:57:32.846Z,25.30
2018-09-11T17:00:42.130Z,25.10
2018-09-11T17:03:51.384Z,24.90
2018-09-11T17:07:00.545Z,24.80
2018-09-11T17:10:09.746Z,24.70
2018-09-11T17:13:18.964Z,24.50
2018-09-11T17:16:28.262Z,24.50
2018-09-11T17:19:37.633Z,24.30
2018-09-11T17:22:47.211Z,24.20
2018-09-11T17:25:56.613Z,24.10
2018-09-11T17:29:06.081Z,24.00
2018-09-11T17:32:15.190Z,23.80
2018-09-11T17:35:24.525Z,23.70
2018-09-11T17:38:33.804Z,23.60
2018-09-11T17:41:43.085Z,23.50
2018-09-11T17:44:52.691Z,23.40
2018-09-11T17:48:02.798Z,23.30
2018-09-11T17:51:12.222Z,23.10
2018-09-11T17:54:21.610Z,23.00
2018-09-11T17:57:30.997Z,22.80
2018-09-11T18:00:41.155Z,22.70
2018-09-11T18:03:50.561Z,22.60
2018-09-11T18:06:59.658Z,22.50
2018-09-11T18:10:08.951Z,22.40
2018-09-11T18:13:18.250Z,22.30
2018-09-11T18:16:27.580Z,22.10
2018-09-11T18:19:36.753Z,22.10
2018-09-11T18:22:46.026Z,22.00
2018-09-11T18:25:55.246Z,21.90
2018-09-11T18:29:04.625Z,21.80
2018-09-11T18:32:14.002Z,21.80
2018-09-11T18:35:23.358Z,21.70
2018-09-11T18:38:32.626Z,21.60
2018-09-11T18:41:41.850Z,21.60
2018-09-11T18:44:51.296Z,21.50
2018-09-11T18:48:00.498Z,21.60
2018-09-11T18:51:09.746Z,21.50
2018-09-11T18:54:18.882Z,21.50
2018-09-11T18:57:28.181Z,21.60
2018-09-11T19:00:37.518Z,21.60
2018-09-11T19:03:46.725Z,21.70
2018-09-11T19:06:56.081Z,21.80
2018-09-11T19:10:05.309Z,21.80
2018-09-11T19:13:14.542Z,21.90
2018-09-11T19:16:23.686Z,21.90
2018-09-11T19:19:33.010Z,22.00
2018-09-11T19:22:42.099Z,22.20
2018-09-11T19:25:51.457Z,22.30
2018-09-11T19:29:00.772Z,22.50
2018-09-11T19:32:10.053Z,22.60
2018-09-11T19:35:19.815Z,22.60
2018-09-11T19:38:29.138Z,22.70
2018-09-11T19:41:38.835Z,22.70
2018-09-11T19:44:48.083Z,22.70
2018-09-11T19:47:57.478Z,22.80
2018-09-11T19:51:06.774Z,22.80
2018-09-11T19:54:16.022Z,22.80
2018-09-11T19:57:25.298Z,22.80
2018-09-11T20:00:34.699Z,22.70
2018-09-11T20:03:44.001Z,22.70
2018-09-11T20:06:53.155Z,22.60
2018-09-11T20:10:02.310Z,22.60
2018-09-11T20:13:11.534Z,22.50
2018-09-11T20:16:20.737Z,22.40
2018-09-11T20:19:30.155Z,22.30
2018-09-11T20:22:39.330Z,22.20
2018-09-11T20:25:48.609Z,22.20
2018-09-11T20:28:57.950Z,22.10
2018-09-11T20:32:07.195Z,22.00
2018-09-11T20:35:16.279Z,21.90
2018-09-11T20:38:25.525Z,21.90
2018-09-11T20:41:34.758Z,21.90
2018-09-11T20:44:44.822Z,21.80
2018-09-11T20:47:54.118Z,21.80
2018-09-11T20:51:03.358Z,21.90
2018-09-11T20:54:12.689Z,21.90
2018-09-11T20:57:22.030Z,21.80
2018-09-11T21:00:31.574Z,21.90
2018-09-11T21:03:41.222Z,21.90
2018-09-11T21:06:50.554Z,21.80
2018-09-11T21:10:00.310Z,21.80
2018-09-11T21:13:09.579Z,21.80
2018-09-11T21:16:18.812Z,21.90
2018-09-11T21:19:28.194Z,21.90
2018-09-11T21:22:37.471Z,21.90
2018-09-11T21:25:46.802Z,21.90
2018-09-11T21:28:55.976Z,21.90
2018-09-11T21:32:05.266Z,21.90
2018-09-11T21:35:14.469Z,21.80
2018-09-11T21:38:23.653Z,21.80
2018-09-11T21:41:32.920Z,21.60
2018-09-11T21:44:42.316Z,21.50
2018-09-11T21:47:51.545Z,21.40
2018-09-11T21:51:00.833Z,21.30
2018-09-11T21:54:10.026Z,21.10
2018-09-11T21:57:19.361Z,21.00
2018-09-11T22:00:28.697Z,21.00
2018-09-11T22:03:38.104Z,20.90
2018-09-11T22:06:47.250Z,20.80
2018-09-11T22:09:56.609Z,20.70
2018-09-11T22:13:05.758Z,20.70
2018-09-11T22:16:15.068Z,20.60
2018-09-11T22:19:24.261Z,20.60
2018-09-11T22:22:33.610Z,20.50
2018-09-11T22:25:42.857Z,20.50
2018-09-11T22:28:52.050Z,20.40
2018-09-11T22:32:01.449Z,20.40
2018-09-11T22:35:10.842Z,20.30
2018-09-11T22:38:19.954Z,20.20
2018-09-11T22:41:29.351Z,20.10
2018-09-11T22:44:38.632Z,20.10
2018-09-11T22:47:47.906Z,20.10
2018-09-11T22:50:57.052Z,20.10
2018-09-11T22:54:06.289Z,20.10
2018-09-11T22:57:15.457Z,20.20
2018-09-11T23:00:24.877Z,20.20
2018-09-11T23:03:34.234Z,20.30
2018-09-11T23:06:43.409Z,20.30
2018-09-11T23:09:52.585Z,20.30
2018-09-11T23:13:01.919Z,20.40
2018-09-11T23:16:12.229Z,20.40
2018-09-11T23:19:21.630Z,20.40
2018-09-11T23:22:30.983Z,20.40
2018-09-11T23:25:40.307Z,20.30
2018-09-11T23:28:50.627Z,20.40
2018-09-11T23:31:59.829Z,20.40
2018-09-11T23:35:09.233Z,20.40
2018-09-11T23:38:18.590Z,20.40
2018-09-11T23:41:27.930Z,20.40
2018-09-11T23:44:37.241Z,20.30
2018-09-11T23:47:46.522Z,20.20
2018-09-11T23:50:55.868Z,20.20
2018-09-11T23:54:05.098Z,20.00
2018-09-11T23:57:14.440Z,20.00
